createdAt,value
2018-03-29T00:02:00.270Z,96610.80
2018-03-29T00:04:28.780Z,96617.00
2018-03-29T00:06:56.193Z,96621.86
2018-03-29T00:09:23.771Z,96617.36
2018-03-29T00:11:51.188Z,96608.02
2018-03-29T00:14:19.241Z,96607.95
2018-03-29T00:16:46.800Z,96614.25
2018-03-29T00:19:14.383Z,96633.44
2018-03-29T00:21:41.900Z,96633.44
2018-03-29T00:24:09.479Z,96638.89
2018-03-29T00:26:37.054Z,96644.09
2018-03-29T00:29:04.716Z,96636.02
2018-03-29T00:31:32.184Z,96633.88
2018-03-29T00:33:59.606Z,96645.28
2018-03-29T00:36:27.053Z,96655.84
2018-03-29T00:38:54.508Z,96653.63
2018-03-29T00:41:21.946Z,96658.38
2018-03-29T00:43:49.355Z,96659.75
2018-03-29T00:46:17.852Z,96669.00
2018-03-29T00:48:45.416Z,96684.66
2018-03-29T00:51:13.958Z,96681.28
2018-03-29T00:53:45.272Z,96689.72
2018-03-29T00:56:12.844Z,96686.56
2018-03-29T00:58:40.370Z,96689.73
2018-03-29T01:01:07.930Z,96693.06
2018-03-29T01:03:35.425Z,96689.88
2018-03-29T01:06:02.880Z,96699.98
2018-03-29T01:08:32.761Z,96707.38
2018-03-29T01:11:00.190Z,96707.43
2018-03-29T01:13:27.644Z,96713.91
2018-03-29T01:15:55.048Z,96706.39
2018-03-29T01:18:22.564Z,96712.51
2018-03-29T01:20:50.052Z,96711.86
2018-03-29T01:23:17.508Z,96710.88
2018-03-29T01:25:44.998Z,96709.82
2018-03-29T01:28:12.457Z,96705.09
2018-03-29T01:30:39.990Z,96719.52
2018-03-29T01:33:07.436Z,96725.83
2018-03-29T01:35:34.979Z,96740.74
2018-03-29T01:38:02.392Z,96732.08
2018-03-29T01:40:29.843Z,96737.45
2018-03-29T01:42:57.264Z,96737.31
2018-03-29T01:45:24.792Z,96745.75
2018-03-29T01:47:52.215Z,96747.08
2018-03-29T01:50:20.260Z,96747.84
2018-03-29T01:52:47.679Z,96751.86
2018-03-29T01:55:15.121Z,96743.64
2018-03-29T01:57:42.706Z,96746.59
2018-03-29T02:00:10.388Z,96752.63
2018-03-29T02:02:37.898Z,96746.29
2018-03-29T02:05:05.393Z,96747.93
2018-03-29T02:07:32.835Z,96746.53
2018-03-29T02:10:00.288Z,96747.11
2018-03-29T02:12:27.721Z,96749.64
2018-03-29T02:14:55.138Z,96748.95
2018-03-29T02:17:22.587Z,96750.97
2018-03-29T02:19:50.124Z,96755.42
2018-03-29T02:22:18.822Z,96756.10
2018-03-29T02:24:46.427Z,96756.66
2018-03-29T02:27:13.849Z,96759.13
2018-03-29T02:29:41.294Z,96759.20
2018-03-29T02:32:08.726Z,96753.84
2018-03-29T02:34:36.173Z,96755.47
2018-03-29T02:37:03.594Z,96752.55
2018-03-29T02:39:31.084Z,96759.35
2018-03-29T02:41:58.597Z,96760.94
2018-03-29T02:44:26.189Z,96766.83
2018-03-29T02:46:53.608Z,96768.71
2018-03-29T02:49:21.152Z,96771.48
2018-03-29T02:51:48.800Z,96780.55
2018-03-29T02:54:16.389Z,96783.45
2018-03-29T02:56:43.908Z,96782.72
2018-03-29T02:59:11.516Z,96783.73
2018-03-29T03:01:39.144Z,96787.32
2018-03-29T03:04:06.646Z,96790.98
2018-03-29T03:06:34.054Z,96795.39
2018-03-29T03:09:02.272Z,96801.07
2018-03-29T03:11:29.840Z,96802.80
2018-03-29T03:13:57.262Z,96801.84
2018-03-29T03:16:24.707Z,96811.26
2018-03-29T03:18:52.144Z,96814.90
2018-03-29T03:21:19.714Z,96811.62
2018-03-29T03:23:47.160Z,96814.36
2018-03-29T03:26:15.200Z,96814.30
2018-03-29T03:28:42.657Z,96817.97
2018-03-29T03:31:10.275Z,96817.59
2018-03-29T03:33:37.928Z,96806.64
2018-03-29T03:36:05.361Z,96817.14
2018-03-29T03:38:32.805Z,96811.85
2018-03-29T03:41:00.228Z,96810.05
2018-03-29T03:43:27.673Z,96812.33
2018-03-29T03:45:55.089Z,96809.69
2018-03-29T03:48:22.534Z,96801.73
2018-03-29T03:50:50.155Z,96808.36
2018-03-29T03:53:17.717Z,96808.14
2018-03-29T03:55:46.377Z,96796.06
2018-03-29T03:58:13.871Z,96797.00
2018-03-29T04:00:41.286Z,96802.20
2018-03-29T04:03:08.725Z,96799.87
2018-03-29T04:05:36.658Z,96801.70
2018-03-29T04:08:04.289Z,96800.06
2018-03-29T04:10:31.825Z,96803.17
2018-03-29T04:12:59.495Z,96810.99
2018-03-29T04:15:26.960Z,96816.03
2018-03-29T04:17:54.377Z,96806.61
2018-03-29T04:20:21.822Z,96812.63
2018-03-29T04:22:49.262Z,96818.14
2018-03-29T04:25:16.708Z,96817.27
2018-03-29T04:27:44.153Z,96822.42
2018-03-29T04:30:11.651Z,96819.14
2018-03-29T04:32:39.287Z,96818.58
2018-03-29T04:35:07.641Z,96813.50
2018-03-29T04:37:35.110Z,96817.61
2018-03-29T04:40:02.553Z,96814.95
2018-03-29T04:42:29.987Z,96818.56
2018-03-29T04:44:57.552Z,96813.88
2018-03-29T04:47:25.010Z,96820.22
2018-03-29T04:49:53.253Z,96826.22
2018-03-29T04:52:20.672Z,96827.70
2018-03-29T04:54:48.130Z,96838.27
2018-03-29T04:57:15.612Z,96837.36
2018-03-29T04:59:43.053Z,96841.58
2018-03-29T05:02:10.494Z,96841.60
2018-03-29T05:04:37.952Z,96843.73
2018-03-29T05:07:05.505Z,96836.40
2018-03-29T05:09:33.182Z,96848.32
2018-03-29T05:12:00.727Z,96846.17
2018-03-29T05:14:28.186Z,96851.09
2018-03-29T05:16:55.640Z,96857.14
2018-03-29T05:19:23.070Z,96862.86
2018-03-29T05:21:50.633Z,96865.19
2018-03-29T05:24:18.048Z,96870.19
2018-03-29T05:26:49.341Z,96868.29
2018-03-29T05:29:16.767Z,96868.72
2018-03-29T05:31:44.504Z,96862.42
2018-03-29T05:34:12.032Z,96863.69
2018-03-29T05:36:39.510Z,96861.61
2018-03-29T05:39:06.959Z,96869.81
2018-03-29T05:41:34.433Z,96879.89
2018-03-29T05:44:01.907Z,96880.93
2018-03-29T05:46:29.319Z,96884.14
2018-03-29T05:48:56.760Z,96879.91
2018-03-29T05:51:24.185Z,96882.15
2018-03-29T05:53:51.622Z,96881.45
2018-03-29T05:56:19.045Z,96880.58
2018-03-29T05:58:46.491Z,96875.13
2018-03-29T06:01:14.013Z,96882.23
2018-03-29T06:03:41.484Z,96899.57
2018-03-29T06:06:08.936Z,96894.22
2018-03-29T06:08:36.382Z,96903.53
2018-03-29T06:11:03.857Z,96900.85
2018-03-29T06:13:31.240Z,96905.67
2018-03-29T06:16:04.540Z,96911.08
2018-03-29T06:18:32.898Z,96918.67
2018-03-29T06:21:01.062Z,96910.11
2018-03-29T06:23:28.497Z,96919.17
2018-03-29T06:25:55.946Z,96913.33
2018-03-29T06:28:24.035Z,96927.22
2018-03-29T06:30:51.485Z,96931.93
2018-03-29T06:33:18.969Z,96927.88
2018-03-29T06:35:46.484Z,96941.14
2018-03-29T06:38:13.904Z,96933.83
2018-03-29T06:40:41.389Z,96947.02
2018-03-29T06:43:08.819Z,96935.30
2018-03-29T06:45:36.263Z,96946.50
2018-03-29T06:48:04.121Z,96950.48
2018-03-29T06:50:31.533Z,96949.83
2018-03-29T06:52:58.979Z,96939.02
2018-03-29T06:55:26.457Z,96944.22
2018-03-29T06:57:54.449Z,96940.95
2018-03-29T07:00:21.864Z,96941.03
2018-03-29T07:02:49.396Z,96942.05
2018-03-29T07:05:16.908Z,96941.11
2018-03-29T07:07:44.495Z,96921.20
2018-03-29T07:10:12.807Z,96938.44
2018-03-29T07:12:40.260Z,96947.16
2018-03-29T07:15:07.776Z,96939.45
2018-03-29T07:17:35.199Z,96953.48
2018-03-29T07:20:02.657Z,96950.68
2018-03-29T07:22:30.091Z,96939.38
2018-03-29T07:24:57.536Z,96932.80
2018-03-29T07:27:25.087Z,96932.92
2018-03-29T07:29:53.754Z,96930.19
2018-03-29T07:32:21.186Z,96930.66
2018-03-29T07:34:48.711Z,96928.75
2018-03-29T07:37:16.567Z,96922.89
2018-03-29T07:39:44.001Z,96891.23
2018-03-29T07:42:11.481Z,96887.88
2018-03-29T07:44:39.185Z,96886.19
2018-03-29T07:47:06.664Z,96883.95
2018-03-29T07:49:34.282Z,96882.68
2018-03-29T07:52:01.727Z,96882.87
2018-03-29T07:54:29.223Z,96880.61
2018-03-29T07:56:56.722Z,96881.56
2018-03-29T07:59:24.181Z,96884.20
2018-03-29T08:01:51.630Z,96886.70
2018-03-29T08:04:19.073Z,96883.95
2018-03-29T08:06:46.510Z,96878.95
2018-03-29T08:09:14.051Z,96868.31
2018-03-29T08:11:41.605Z,96864.44
2018-03-29T08:14:09.054Z,96863.88
2018-03-29T08:16:36.530Z,96875.39
2018-03-29T08:19:03.988Z,96869.28
2018-03-29T08:21:31.951Z,96885.22
2018-03-29T08:23:59.403Z,96877.67
2018-03-29T08:26:26.974Z,96882.00
2018-03-29T08:28:54.445Z,96883.82
2018-03-29T08:31:22.380Z,96890.52
2018-03-29T08:33:49.939Z,96880.38
2018-03-29T08:36:17.500Z,96889.41
2018-03-29T08:38:45.047Z,96892.73
2018-03-29T08:41:12.718Z,96890.92
2018-03-29T08:43:40.296Z,96882.38
2018-03-29T08:46:07.990Z,96880.55
2018-03-29T08:48:35.465Z,96896.66
2018-03-29T08:51:02.999Z,96892.33
2018-03-29T08:53:30.494Z,96898.55
2018-03-29T08:55:58.014Z,96889.79
2018-03-29T08:58:25.438Z,96891.17
2018-03-29T09:00:52.886Z,96892.55
2018-03-29T09:03:20.326Z,96895.77
2018-03-29T09:05:47.763Z,96903.37
2018-03-29T09:08:15.283Z,96908.20
2018-03-29T09:10:42.725Z,96910.82
2018-03-29T09:13:10.157Z,96916.17
2018-03-29T09:15:37.930Z,96909.83
2018-03-29T09:18:05.370Z,96930.41
2018-03-29T09:20:32.978Z,96930.97
2018-03-29T09:23:00.563Z,96921.06
2018-03-29T09:25:27.995Z,96921.56
2018-03-29T09:27:56.048Z,96917.05
2018-03-29T09:30:23.549Z,96918.67
2018-03-29T09:32:52.094Z,96918.31
2018-03-29T09:35:19.512Z,96922.05
2018-03-29T09:37:47.097Z,96916.21
2018-03-29T09:40:15.898Z,96932.09
2018-03-29T09:42:43.346Z,96926.29
2018-03-29T09:45:10.968Z,96923.84
2018-03-29T09:47:38.578Z,96923.60
2018-03-29T09:50:06.032Z,96920.64
2018-03-29T09:52:33.504Z,96914.44
2018-03-29T09:55:01.797Z,96921.37
2018-03-29T09:57:29.277Z,96918.34
2018-03-29T09:59:56.744Z,96916.47
2018-03-29T10:02:26.076Z,96910.80
2018-03-29T10:04:59.017Z,96904.98
2018-03-29T10:07:32.148Z,96898.45
2018-03-29T10:09:59.737Z,96892.66
2018-03-29T10:12:27.158Z,96882.41
2018-03-29T10:14:54.610Z,96883.50
2018-03-29T10:17:22.034Z,96875.76
2018-03-29T10:19:49.586Z,96862.57
2018-03-29T10:22:17.152Z,96855.50
2018-03-29T10:24:44.583Z,96839.63
2018-03-29T10:27:12.048Z,96836.19
2018-03-29T10:29:39.557Z,96837.77
2018-03-29T10:32:07.887Z,96839.78
2018-03-29T10:34:35.505Z,96849.33
2018-03-29T10:37:03.037Z,96846.34
2018-03-29T10:39:30.630Z,96841.31
2018-03-29T10:41:58.302Z,96850.25
2018-03-29T10:44:25.976Z,96849.82
2018-03-29T10:46:53.651Z,96840.44
2018-03-29T10:49:21.212Z,96842.70
2018-03-29T10:51:49.528Z,96841.84
2018-03-29T10:54:17.166Z,96834.64
2018-03-29T10:56:44.863Z,96829.56
2018-03-29T10:59:12.399Z,96836.00
2018-03-29T11:01:39.898Z,96838.05
2018-03-29T11:04:07.512Z,96837.02
2018-03-29T11:06:34.964Z,96843.25
2018-03-29T11:09:02.427Z,96849.31
2018-03-29T11:11:30.025Z,96845.66
2018-03-29T11:13:57.510Z,96852.41
2018-03-29T11:16:24.934Z,96843.09
2018-03-29T11:18:52.358Z,96845.25
2018-03-29T11:21:19.845Z,96855.48
2018-03-29T11:23:47.435Z,96848.58
2018-03-29T11:26:15.093Z,96845.66
2018-03-29T11:28:42.520Z,96836.45
2018-03-29T11:31:10.031Z,96844.73
2018-03-29T11:33:37.496Z,96830.29
2018-03-29T11:36:05.085Z,96837.52
2018-03-29T11:38:32.733Z,96841.33
2018-03-29T11:41:00.156Z,96839.04
2018-03-29T11:43:27.646Z,96834.48
2018-03-29T11:45:55.069Z,96827.50
2018-03-29T11:48:22.526Z,96824.63
2018-03-29T11:50:50.112Z,96822.78
2018-03-29T11:53:18.318Z,96826.34
2018-03-29T11:55:45.855Z,96826.34
2018-03-29T11:58:13.299Z,96816.81
2018-03-29T12:00:41.252Z,96816.92
2018-03-29T12:03:08.769Z,96813.73
2018-03-29T12:05:36.431Z,96817.90
2018-03-29T12:08:03.969Z,96806.98
2018-03-29T12:10:31.434Z,96813.91
2018-03-29T12:12:58.853Z,96804.78
2018-03-29T12:15:26.301Z,96811.31
2018-03-29T12:17:53.888Z,96805.41
2018-03-29T12:20:21.313Z,96810.14
2018-03-29T12:22:48.774Z,96804.95
2018-03-29T12:25:16.232Z,96801.06
2018-03-29T12:27:44.029Z,96789.55
2018-03-29T12:30:11.494Z,96776.78
2018-03-29T12:32:39.007Z,96776.31
2018-03-29T12:35:06.456Z,96766.06
2018-03-29T12:37:33.901Z,96767.80
2018-03-29T12:40:01.390Z,96766.38
2018-03-29T12:42:28.958Z,96761.36
2018-03-29T12:44:56.448Z,96759.59
2018-03-29T12:47:24.393Z,96764.14
2018-03-29T12:49:51.959Z,96761.55
2018-03-29T12:52:19.564Z,96759.34
2018-03-29T12:54:58.980Z,96764.48
2018-03-29T12:57:38.366Z,96769.48
2018-03-29T13:00:05.805Z,96763.28
2018-03-29T13:02:33.356Z,96764.12
2018-03-29T13:05:00.910Z,96766.52
2018-03-29T13:07:28.587Z,96752.52
2018-03-29T13:09:56.324Z,96757.55
2018-03-29T13:12:23.738Z,96753.71
2018-03-29T13:14:51.295Z,96762.73
2018-03-29T13:17:18.973Z,96763.89
2018-03-29T13:19:46.435Z,96757.66
2018-03-29T13:22:13.854Z,96769.74
2018-03-29T13:24:41.459Z,96767.67
2018-03-29T13:27:09.087Z,96769.57
2018-03-29T13:29:36.621Z,96770.31
2018-03-29T13:32:04.155Z,96771.02
2018-03-29T13:34:31.692Z,96763.30
2018-03-29T13:36:59.245Z,96765.52
2018-03-29T13:39:28.278Z,96762.69
2018-03-29T13:41:55.767Z,96761.43
2018-03-29T13:44:23.218Z,96762.03
2018-03-29T13:46:50.645Z,96758.14
2018-03-29T13:49:18.095Z,96754.69
2018-03-29T13:51:45.534Z,96757.02
2018-03-29T13:54:12.980Z,96755.69
2018-03-29T13:56:40.506Z,96760.13
2018-03-29T13:59:08.010Z,96759.24
2018-03-29T14:01:35.472Z,96756.70
2018-03-29T14:04:03.038Z,96756.56
2018-03-29T14:06:31.274Z,96761.95
2018-03-29T14:08:58.714Z,96768.87
2018-03-29T14:11:26.254Z,96761.33
2018-03-29T14:13:53.678Z,96760.39
2018-03-29T14:16:21.271Z,96758.64
2018-03-29T14:18:48.709Z,96754.63
2018-03-29T14:21:16.334Z,96757.13
2018-03-29T14:23:43.932Z,96754.34
2018-03-29T14:26:11.452Z,96756.85
2018-03-29T14:28:38.930Z,96755.05
2018-03-29T14:31:06.362Z,96765.30
2018-03-29T14:33:33.836Z,96760.42
2018-03-29T14:36:01.303Z,96763.67
2018-03-29T14:38:28.726Z,96769.22
2018-03-29T14:40:56.251Z,96769.16
2018-03-29T14:43:23.705Z,96776.19
2018-03-29T14:45:51.213Z,96776.97
2018-03-29T14:48:18.722Z,96772.53
2018-03-29T14:50:46.165Z,96768.16
2018-03-29T14:53:13.677Z,96767.58
2018-03-29T14:55:41.209Z,96764.59
2018-03-29T14:58:08.763Z,96758.47
2018-03-29T15:00:36.268Z,96761.98
2018-03-29T15:03:03.727Z,96763.38
2018-03-29T15:05:31.143Z,96762.44
2018-03-29T15:07:58.625Z,96762.28
2018-03-29T15:10:26.077Z,96758.30
2018-03-29T15:12:53.555Z,96759.58
2018-03-29T15:15:21.099Z,96758.23
2018-03-29T15:17:48.782Z,96763.53
2018-03-29T15:20:16.247Z,96761.74
2018-03-29T15:22:44.495Z,96760.45
2018-03-29T15:25:12.088Z,96762.52
2018-03-29T15:27:39.630Z,96765.13
2018-03-29T15:30:07.078Z,96756.27
2018-03-29T15:32:35.438Z,96762.81
2018-03-29T15:35:03.005Z,96765.86
2018-03-29T15:37:30.486Z,96759.17
2018-03-29T15:39:57.935Z,96765.91
2018-03-29T15:42:25.365Z,96765.14
2018-03-29T15:44:52.825Z,96758.48
2018-03-29T15:47:20.267Z,96761.50
2018-03-29T15:49:47.836Z,96750.95
2018-03-29T15:52:15.461Z,96751.88
2018-03-29T15:54:42.892Z,96751.01
2018-03-29T15:57:10.354Z,96753.85
2018-03-29T15:59:37.773Z,96751.22
2018-03-29T16:02:05.294Z,96748.84
2018-03-29T16:04:32.715Z,96753.20
2018-03-29T16:07:00.145Z,96747.22
2018-03-29T16:09:27.589Z,96753.30
2018-03-29T16:11:55.128Z,96757.50
2018-03-29T16:14:23.175Z,96758.20
2018-03-29T16:16:50.630Z,96763.06
2018-03-29T16:19:18.073Z,96769.12
2018-03-29T16:21:45.504Z,96765.20
2018-03-29T16:24:12.984Z,96762.75
2018-03-29T16:26:40.433Z,96767.97
2018-03-29T16:29:08.060Z,96774.58
2018-03-29T16:31:35.563Z,96782.34
2018-03-29T16:34:03.073Z,96782.43
2018-03-29T16:36:30.538Z,96780.28
2018-03-29T16:38:58.458Z,96787.99
2018-03-29T16:41:25.968Z,96786.11
2018-03-29T16:43:53.614Z,96789.58
2018-03-29T16:46:21.037Z,96791.17
2018-03-29T16:48:48.522Z,96796.38
2018-03-29T16:51:15.937Z,96793.16
2018-03-29T16:53:43.378Z,96803.59
2018-03-29T16:56:10.844Z,96807.01
2018-03-29T16:58:38.479Z,96807.27
2018-03-29T17:01:05.901Z,96821.05
2018-03-29T17:03:33.411Z,96818.05
2018-03-29T17:06:01.954Z,96818.04
2018-03-29T17:08:29.436Z,96821.57
2018-03-29T17:10:57.153Z,96822.95
2018-03-29T17:13:24.671Z,96831.11
2018-03-29T17:15:52.240Z,96831.52
2018-03-29T17:18:19.828Z,96831.38
2018-03-29T17:20:47.585Z,96837.26
2018-03-29T17:23:15.201Z,96843.65
2018-03-29T17:25:43.565Z,96848.02
2018-03-29T17:28:11.591Z,96850.18
2018-03-29T17:30:39.057Z,96851.45
2018-03-29T17:33:06.497Z,96847.95
2018-03-29T17:35:33.986Z,96843.86
2018-03-29T17:38:01.475Z,96846.88
2018-03-29T17:40:29.004Z,96848.70
2018-03-29T17:42:56.721Z,96848.30
2018-03-29T17:45:24.179Z,96853.50
2018-03-29T17:47:51.599Z,96853.77
2018-03-29T17:50:20.145Z,96860.94
2018-03-29T17:52:48.325Z,96856.66
2018-03-29T17:55:15.771Z,96850.31
2018-03-29T17:57:43.270Z,96847.80
2018-03-29T18:00:10.815Z,96838.92
2018-03-29T18:02:38.454Z,96855.63
2018-03-29T18:05:05.940Z,96853.34
2018-03-29T18:07:33.413Z,96852.77
2018-03-29T18:10:00.894Z,96851.50
2018-03-29T18:12:28.363Z,96853.80
2018-03-29T18:14:55.800Z,96858.08
2018-03-29T18:17:23.265Z,96860.82
2018-03-29T18:19:50.698Z,96869.74
2018-03-29T18:22:18.336Z,96871.81
2018-03-29T18:24:45.762Z,96874.97
2018-03-29T18:27:13.218Z,96878.69
2018-03-29T18:29:40.688Z,96875.28
2018-03-29T18:32:08.160Z,96878.17
2018-03-29T18:34:35.598Z,96874.32
2018-03-29T18:37:03.079Z,96879.86
2018-03-29T18:39:30.509Z,96882.30
2018-03-29T18:41:58.175Z,96876.68
2018-03-29T18:44:25.737Z,96876.41
2018-03-29T18:46:53.239Z,96878.97
2018-03-29T18:49:20.694Z,96875.92
2018-03-29T18:51:48.182Z,96874.16
2018-03-29T18:54:15.659Z,96869.86
2018-03-29T18:56:44.737Z,96870.39
2018-03-29T18:59:12.237Z,96867.23
2018-03-29T19:01:39.768Z,96870.70
2018-03-29T19:04:07.220Z,96874.88
2018-03-29T19:06:34.664Z,96872.50
2018-03-29T19:09:02.123Z,96872.50
2018-03-29T19:11:29.616Z,96868.78
2018-03-29T19:13:57.088Z,96869.48
2018-03-29T19:16:24.646Z,96872.87
2018-03-29T19:18:52.139Z,96871.21
2018-03-29T19:21:19.639Z,96872.16
2018-03-29T19:23:47.272Z,96871.98
2018-03-29T19:26:14.883Z,96868.70
2018-03-29T19:28:42.358Z,96882.63
2018-03-29T19:31:09.845Z,96888.20
2018-03-29T19:33:37.303Z,96893.63
2018-03-29T19:36:04.802Z,96888.88
2018-03-29T19:38:32.240Z,96894.95
2018-03-29T19:40:59.730Z,96897.83
2018-03-29T19:43:27.199Z,96902.22
2018-03-29T19:45:54.672Z,96889.00
2018-03-29T19:48:22.189Z,96898.57
2018-03-29T19:50:49.682Z,96900.42
2018-03-29T19:53:17.432Z,96895.06
2018-03-29T19:55:44.908Z,96903.16
2018-03-29T19:58:12.432Z,96906.17
2018-03-29T20:00:39.934Z,96902.99
2018-03-29T20:03:07.522Z,96909.05
2018-03-29T20:05:35.070Z,96902.69
2018-03-29T20:08:02.732Z,96911.05
2018-03-29T20:10:30.340Z,96905.17
2018-03-29T20:12:57.835Z,96907.71
2018-03-29T20:15:25.290Z,96909.70
2018-03-29T20:17:52.795Z,96909.35
2018-03-29T20:20:20.272Z,96908.60
2018-03-29T20:22:48.056Z,96910.34
2018-03-29T20:25:15.508Z,96915.08
2018-03-29T20:27:42.965Z,96917.34
2018-03-29T20:30:10.454Z,96913.28
2018-03-29T20:32:37.922Z,96912.16
2018-03-29T20:35:05.400Z,96913.73
2018-03-29T20:37:32.900Z,96907.30
2018-03-29T20:40:00.390Z,96909.64
2018-03-29T20:42:27.819Z,96906.81
2018-03-29T20:44:55.312Z,96910.09
2018-03-29T20:47:22.997Z,96903.16
2018-03-29T20:49:50.422Z,96908.32
2018-03-29T20:52:17.943Z,96908.17
2018-03-29T20:54:45.413Z,96904.11
2018-03-29T20:57:12.882Z,96906.44
2018-03-29T20:59:40.327Z,96898.78
2018-03-29T21:02:07.804Z,96892.38
2018-03-29T21:04:35.855Z,96886.67
2018-03-29T21:07:03.382Z,96886.02
2018-03-29T21:09:31.128Z,96892.38
2018-03-29T21:11:58.577Z,96888.66
2018-03-29T21:14:26.046Z,96891.20
2018-03-29T21:16:53.475Z,96892.73
2018-03-29T21:19:20.936Z,96898.84
2018-03-29T21:21:48.425Z,96895.27
2018-03-29T21:24:15.978Z,96897.98
2018-03-29T21:26:43.565Z,96896.16
2018-03-29T21:29:11.029Z,96904.93
2018-03-29T21:31:38.442Z,96903.30
2018-03-29T21:34:43.912Z,96906.03
2018-03-29T21:37:11.345Z,96915.09
2018-03-29T21:39:38.806Z,96914.58
2018-03-29T21:42:06.338Z,96912.98
2018-03-29T21:44:33.842Z,96907.23
2018-03-29T21:47:01.402Z,96919.22
2018-03-29T21:49:29.012Z,96918.49
2018-03-29T21:51:56.560Z,96914.94
2018-03-29T21:54:24.108Z,96918.70
2018-03-29T21:56:51.552Z,96918.86
2018-03-29T21:59:19.048Z,96913.80
2018-03-29T22:01:47.941Z,96912.14
2018-03-29T22:04:16.350Z,96909.93
2018-03-29T22:06:43.852Z,96912.02
2018-03-29T22:09:11.324Z,96916.22
2018-03-29T22:11:38.925Z,96920.09
2018-03-29T22:14:07.040Z,96937.07
2018-03-29T22:16:34.523Z,96941.94
2018-03-29T22:19:02.102Z,96945.33
2018-03-29T22:21:29.638Z,96945.01
2018-03-29T22:23:57.192Z,96946.84
2018-03-29T22:26:24.804Z,96951.38
2018-03-29T22:28:52.237Z,96951.20
2018-03-29T22:31:19.715Z,96952.52
2018-03-29T22:33:47.191Z,96952.14
2018-03-29T22:36:14.592Z,96949.62
2018-03-29T22:38:42.053Z,96950.70
2018-03-29T22:41:09.476Z,96946.27
2018-03-29T22:43:37.212Z,96952.89
2018-03-29T22:46:04.638Z,96949.12
2018-03-29T22:48:32.156Z,96952.47
2018-03-29T22:50:59.614Z,96952.27
2018-03-29T22:53:27.045Z,96948.39
2018-03-29T22:55:54.505Z,96945.98
2018-03-29T22:58:21.927Z,96947.86
2018-03-29T23:00:49.392Z,96943.90
2018-03-29T23:03:17.060Z,96945.11
2018-03-29T23:05:44.527Z,96942.66
2018-03-29T23:08:11.958Z,96938.91
2018-03-29T23:10:39.441Z,96940.16
2018-03-29T23:13:06.857Z,96938.55
2018-03-29T23:15:34.651Z,96937.76
2018-03-29T23:18:02.096Z,96932.92
2018-03-29T23:20:29.565Z,96927.56
2018-03-29T23:22:57.026Z,96923.23
2018-03-29T23:25:24.465Z,96925.41
2018-03-29T23:27:51.931Z,96920.80
2018-03-29T23:30:19.373Z,96915.45
2018-03-29T23:32:46.947Z,96907.64
2018-03-29T23:35:15.130Z,96905.75
2018-03-29T23:37:43.509Z,96902.67
2018-03-29T23:40:10.995Z,96907.34
2018-03-29T23:42:38.441Z,96902.73
2018-03-29T23:45:05.879Z,96897.81
2018-03-29T23:47:33.351Z,96893.13
2018-03-29T23:50:00.776Z,96895.75
2018-03-29T23:52:28.232Z,96889.94
2018-03-29T23:54:55.681Z,96889.92
2018-03-29T23:57:23.114Z,96888.91
2018-03-29T23:59:50.600Z,96882.86
